Creole Spirit — C6BF3 — position and weather

sailwx.info

Track history (hours):
 
Tides and Currents Weather Stations Pressure Air Temp Water Temp Dewpoint Dewpoint Depression Visibility Wind Speed Wind Dir Waves Ship Positions

Creole Spirit

Last reported at 2018-Jul-18 06:02 UTC. Time now 2018-Jul-20 17:58 UTC.
Position N 13°31' W 060°56'.

Length 295 m; draft 11.6 m.

Type: Ship. MMSI: 311000246.

Date/timePositionNaut miles runAvg speedWind from/ knotsBaromVisibWave heightAir tempDewpointWater temp
2018-Jul-18 06:02N 13°31' W 060°56'017.4
2018-Jul-18 06:01N 13°31' W 060°57'  
2018-Jul-13 10:40N 29°08' W 093°39'614.5
2018-Jul-13 10:16N 29°14' W 093°39'411.5
2018-Jul-13 09:54N 29°18' W 093°40'410.9
2018-Jul-13 09:30N 29°22' W 093°40'5 9.1
2018-Jul-13 09:01N 29°27' W 093°40'611.3
2018-Jul-13 08:30N 29°32' W 093°43'612.8
2018-Jul-13 08:01N 29°36' W 093°48'510.4
2018-Jul-13 07:30N 29°41' W 093°50'4 7.6
2018-Jul-13 07:00N 29°44' W 093°52'0 0.0
2018-Jul-11 22:06N 29°45' W 093°52'0 0.0
2018-Jul-11 22:01N 29°45' W 093°52'0 0.7
2018-Jul-11 21:31N 29°44' W 093°52'3 5.3
2018-Jul-11 21:01N 29°42' W 093°51'4 9.0
2018-Jul-11 20:31N 29°38' W 093°49'4 8.9
2018-Jul-11 20:01N 29°34' W 093°46'4 7.6
2018-Jul-11 19:31N 29°31' W 093°43'3 6.6
2018-Jul-11 19:00N 29°29' W 093°40'3 6.7
2018-Jul-11 18:31N 29°26' W 093°40'2 4.7
2018-Jul-11 18:00N 29°24' W 093°39'2 3.4
2018-Jul-11 17:30N 29°22' W 093°40'612.1
2018-Jul-11 16:58N 29°15' W 093°39'1315.7
2018-Jul-11 16:08N 29°03' W 093°42'415.8
2018-Jul-11 15:53N 29°02' W 093°46'510.1
2018-Jul-11 15:26N 29°01' W 093°51'714.4
2018-Jul-11 14:56N 29°02' W 093°43'512.2
2018-Jul-11 14:30N 28°59' W 093°39'712.9
2018-Jul-11 14:00N 28°56' W 093°45'712.9
2018-Jul-11 13:29N 29°00' W 093°52'613.7
2018-Jul-11 13:00N 29°02' W 093°45'7 9.7
2018-Jul-11 12:15N 28°56' W 093°40'415.8
2018-Jul-11 12:00N 28°56' W 093°45'713.0
2018-Jul-11 11:26N 28°60' W 093°52'613.6
2018-Jul-11 11:00N 29°02' W 093°46'611.2
2018-Jul-11 10:30N 29°05' W 093°40'814.7
2018-Jul-11 09:59N 29°13' W 093°40'3 6.4
2018-Jul-11 09:28N 29°16' W 093°39'1914.5
2018-Jul-11 08:08N 28°58' W 093°31'414.3
2018-Jul-11 07:51N 28°56' W 093°27'3 8.6
2018-Jul-11 07:30N 28°59' W 093°28'713.8
2018-Jul-11 06:59N 28°52' W 093°25'815.8
2018-Jul-11 06:29N 28°46' W 093°20'917.5
2018-Jul-11 05:59N 28°39' W 093°14'918.4
2018-Jul-11 05:29N 28°31' W 093°08'  
Track history (hours):
 
Tides and Currents Weather Stations Pressure Air Temp Water Temp Dewpoint Dewpoint Depression Visibility Wind Speed Wind Dir Waves Ship Positions

Creole Spirit

Last reported at 2018-Jul-18 06:02 UTC. Time now 2018-Jul-20 17:58 UTC.
Position N 13°31' W 060°56'.

Length 295 m; draft 11.6 m.

Type: Ship. MMSI: 311000246.

Date/timePositionNaut miles runAvg speedWind from/ knotsBaromVisibWave heightAir tempDewpointWater temp
2018-Jul-18 06:02N 13°31' W 060°56'017.4
2018-Jul-18 06:01N 13°31' W 060°57'  
2018-Jul-13 10:40N 29°08' W 093°39'614.5
2018-Jul-13 10:16N 29°14' W 093°39'411.5
2018-Jul-13 09:54N 29°18' W 093°40'410.9
2018-Jul-13 09:30N 29°22' W 093°40'5 9.1
2018-Jul-13 09:01N 29°27' W 093°40'611.3
2018-Jul-13 08:30N 29°32' W 093°43'612.8
2018-Jul-13 08:01N 29°36' W 093°48'510.4
2018-Jul-13 07:30N 29°41' W 093°50'4 7.6
2018-Jul-13 07:00N 29°44' W 093°52'0 0.0
2018-Jul-11 22:06N 29°45' W 093°52'0 0.0
2018-Jul-11 22:01N 29°45' W 093°52'0 0.7
2018-Jul-11 21:31N 29°44' W 093°52'3 5.3
2018-Jul-11 21:01N 29°42' W 093°51'4 9.0
2018-Jul-11 20:31N 29°38' W 093°49'4 8.9
2018-Jul-11 20:01N 29°34' W 093°46'4 7.6
2018-Jul-11 19:31N 29°31' W 093°43'3 6.6
2018-Jul-11 19:00N 29°29' W 093°40'3 6.7
2018-Jul-11 18:31N 29°26' W 093°40'2 4.7
2018-Jul-11 18:00N 29°24' W 093°39'2 3.4
2018-Jul-11 17:30N 29°22' W 093°40'612.1
2018-Jul-11 16:58N 29°15' W 093°39'1315.7
2018-Jul-11 16:08N 29°03' W 093°42'415.8
2018-Jul-11 15:53N 29°02' W 093°46'510.1
2018-Jul-11 15:26N 29°01' W 093°51'714.4
2018-Jul-11 14:56N 29°02' W 093°43'512.2
2018-Jul-11 14:30N 28°59' W 093°39'712.9
2018-Jul-11 14:00N 28°56' W 093°45'712.9
2018-Jul-11 13:29N 29°00' W 093°52'613.7
2018-Jul-11 13:00N 29°02' W 093°45'7 9.7
2018-Jul-11 12:15N 28°56' W 093°40'415.8
2018-Jul-11 12:00N 28°56' W 093°45'713.0
2018-Jul-11 11:26N 28°60' W 093°52'613.6
2018-Jul-11 11:00N 29°02' W 093°46'611.2
2018-Jul-11 10:30N 29°05' W 093°40'814.7
2018-Jul-11 09:59N 29°13' W 093°40'3 6.4
2018-Jul-11 09:28N 29°16' W 093°39'1914.5
2018-Jul-11 08:08N 28°58' W 093°31'414.3
2018-Jul-11 07:51N 28°56' W 093°27'3 8.6
2018-Jul-11 07:30N 28°59' W 093°28'713.8
2018-Jul-11 06:59N 28°52' W 093°25'815.8
2018-Jul-11 06:29N 28°46' W 093°20'917.5
2018-Jul-11 05:59N 28°39' W 093°14'918.4
2018-Jul-11 05:29N 28°31' W 093°08'  

Dump ship's entire track history